sensor_id;sensor_type;location;lat;lon;timestamp;P1;durP1;ratioP1;P2;durP2;ratioP2
32876;SDS011;19226;51.600;8.034;2023-02-01T00:01:27;25.42;;;7.07;;
32876;SDS011;19226;51.600;8.034;2023-02-01T00:04:12;27.33;;;6.82;;
32876;SDS011;19226;51.600;8.034;2023-02-01T00:06:56;23.50;;;7.57;;
32876;SDS011;19226;51.600;8.034;2023-02-01T00:09:41;25.65;;;7.50;;
32876;SDS011;19226;51.600;8.034;2023-02-01T00:12:25;25.35;;;7.80;;
32876;SDS011;19226;51.600;8.034;2023-02-01T00:15:10;39.95;;;9.73;;
32876;SDS011;19226;51.600;8.034;2023-02-01T00:17:55;24.15;;;8.50;;
32876;SDS011;19226;51.600;8.034;2023-02-01T00:20:44;32.53;;;9.50;;
32876;SDS011;19226;51.600;8.034;2023-02-01T00:23:33;29.40;;;9.73;;
32876;SDS011;19226;51.600;8.034;2023-02-01T00:26:20;30.10;;;8.65;;
32876;SDS011;19226;51.600;8.034;2023-02-01T00:29:19;24.42;;;9.90;;
32876;SDS011;19226;51.600;8.034;2023-02-01T00:32:04;28.38;;;10.07;;
32876;SDS011;19226;51.600;8.034;2023-02-01T00:34:48;30.20;;;10.32;;
32876;SDS011;19226;51.600;8.034;2023-02-01T00:37:33;30.38;;;9.75;;
32876;SDS011;19226;51.600;8.034;2023-02-01T00:40:18;31.80;;;9.90;;
32876;SDS011;19226;51.600;8.034;2023-02-01T00:43:02;26.52;;;9.57;;
32876;SDS011;19226;51.600;8.034;2023-02-01T00:45:47;30.30;;;10.48;;
32876;SDS011;19226;51.600;8.034;2023-02-01T00:48:31;33.13;;;10.25;;
32876;SDS011;19226;51.600;8.034;2023-02-01T00:51:18;35.45;;;10.48;;
32876;SDS011;19226;51.600;8.034;2023-02-01T00:54:08;30.80;;;9.57;;
32876;SDS011;19226;51.600;8.034;2023-02-01T00:56:52;43.15;;;11.63;;
32876;SDS011;19226;51.600;8.034;2023-02-01T00:59:37;27.33;;;9.73;;
32876;SDS011;19226;51.600;8.034;2023-02-01T01:02:21;26.77;;;9.52;;
32876;SDS011;19226;51.600;8.034;2023-02-01T01:05:06;38.53;;;10.07;;
32876;SDS011;19226;51.600;8.034;2023-02-01T01:07:50;25.00;;;10.05;;
32876;SDS011;19226;51.600;8.034;2023-02-01T01:10:35;36.47;;;10.05;;
32876;SDS011;19226;51.600;8.034;2023-02-01T01:13:20;28.65;;;10.77;;
32876;SDS011;19226;51.600;8.034;2023-02-01T01:16:05;31.33;;;9.50;;
32876;SDS011;19226;51.600;8.034;2023-02-01T01:18:52;34.22;;;9.75;;
32876;SDS011;19226;51.600;8.034;2023-02-01T01:21:37;36.33;;;9.10;;
32876;SDS011;19226;51.600;8.034;2023-02-01T01:24:22;31.30;;;8.40;;
32876;SDS011;19226;51.600;8.034;2023-02-01T01:27:06;28.92;;;9.55;;
32876;SDS011;19226;51.600;8.034;2023-02-01T01:29:51;23.80;;;8.48;;
32876;SDS011;19226;51.600;8.034;2023-02-01T01:32:35;29.15;;;8.00;;
32876;SDS011;19226;51.600;8.034;2023-02-01T01:35:20;30.52;;;7.93;;
32876;SDS011;19226;51.600;8.034;2023-02-01T01:38:04;20.60;;;7.50;;
32876;SDS011;19226;51.600;8.034;2023-02-01T01:40:49;26.67;;;6.32;;
32876;SDS011;19226;51.600;8.034;2023-02-01T01:43:46;26.60;;;6.50;;
32876;SDS011;19226;51.600;8.034;2023-02-01T01:46:40;24.25;;;6.65;;
32876;SDS011;19226;51.600;8.034;2023-02-01T01:49:25;22.95;;;5.65;;
32876;SDS011;19226;51.600;8.034;2023-02-01T01:52:10;26.27;;;5.47;;
32876;SDS011;19226;51.600;8.034;2023-02-01T01:54:55;21.50;;;4.70;;
32876;SDS011;19226;51.600;8.034;2023-02-01T01:57:42;27.02;;;4.72;;
32876;SDS011;19226;51.600;8.034;2023-02-01T02:00:30;32.92;;;6.78;;
32876;SDS011;19226;51.600;8.034;2023-02-01T02:03:20;23.77;;;5.82;;
32876;SDS011;19226;51.600;8.034;2023-02-01T02:06:16;34.58;;;5.00;;
32876;SDS011;19226;51.600;8.034;2023-02-01T02:09:23;24.77;;;4.95;;
32876;SDS011;19226;51.600;8.034;2023-02-01T02:12:07;24.55;;;4.70;;
32876;SDS011;19226;51.600;8.034;2023-02-01T02:14:52;17.60;;;3.70;;
32876;SDS011;19226;51.600;8.034;2023-02-01T02:27:21;21.70;;;4.20;;
32876;SDS011;19226;51.600;8.034;2023-02-01T02:39:36;17.77;;;4.47;;
32876;SDS011;19226;51.600;8.034;2023-02-01T02:42:42;23.80;;;3.83;;
32876;SDS011;19226;51.600;8.034;2023-02-01T02:52:21;21.17;;;3.85;;
32876;SDS011;19226;51.600;8.034;2023-02-01T02:55:26;21.42;;;4.78;;
32876;SDS011;19226;51.600;8.034;2023-02-01T02:58:12;25.52;;;5.90;;
32876;SDS011;19226;51.600;8.034;2023-02-01T03:01:17;28.65;;;5.00;;
32876;SDS011;19226;51.600;8.034;2023-02-01T03:04:21;20.00;;;4.88;;
32876;SDS011;19226;51.600;8.034;2023-02-01T03:13:57;20.63;;;4.10;;
32876;SDS011;19226;51.600;8.034;2023-02-01T03:16:49;18.10;;;4.35;;
32876;SDS011;19226;51.600;8.034;2023-02-01T03:19:40;25.38;;;4.18;;
32876;SDS011;19226;51.600;8.034;2023-02-01T03:22:33;21.05;;;4.22;;
32876;SDS011;19226;51.600;8.034;2023-02-01T03:25:30;25.70;;;5.03;;
32876;SDS011;19226;51.600;8.034;2023-02-01T03:28:17;26.20;;;4.78;;
32876;SDS011;19226;51.600;8.034;2023-02-01T03:33:51;22.48;;;4.28;;
32876;SDS011;19226;51.600;8.034;2023-02-01T03:36:37;24.67;;;5.10;;
32876;SDS011;19226;51.600;8.034;2023-02-01T03:39:30;16.48;;;3.90;;
32876;SDS011;19226;51.600;8.034;2023-02-01T03:42:38;18.30;;;4.70;;
32876;SDS011;19226;51.600;8.034;2023-02-01T03:45:29;23.48;;;4.32;;
32876;SDS011;19226;51.600;8.034;2023-02-01T03:48:24;15.30;;;4.05;;
32876;SDS011;19226;51.600;8.034;2023-02-01T03:51:13;15.95;;;3.95;;
32876;SDS011;19226;51.600;8.034;2023-02-01T03:53:58;17.42;;;3.78;;
32876;SDS011;19226;51.600;8.034;2023-02-01T03:56:46;21.67;;;4.65;;
32876;SDS011;19226;51.600;8.034;2023-02-01T03:59:32;19.40;;;5.30;;
32876;SDS011;19226;51.600;8.034;2023-02-01T04:02:16;23.85;;;4.68;;
32876;SDS011;19226;51.600;8.034;2023-02-01T04:05:01;28.52;;;4.60;;
32876;SDS011;19226;51.600;8.034;2023-02-01T04:07:46;27.15;;;4.32;;
32876;SDS011;19226;51.600;8.034;2023-02-01T04:10:30;18.23;;;3.78;;
32876;SDS011;19226;51.600;8.034;2023-02-01T04:13:15;30.30;;;4.40;;
32876;SDS011;19226;51.600;8.034;2023-02-01T04:15:59;25.10;;;3.67;;
32876;SDS011;19226;51.600;8.034;2023-02-01T04:18:44;29.45;;;3.70;;
32876;SDS011;19226;51.600;8.034;2023-02-01T04:21:28;21.45;;;5.10;;
32876;SDS011;19226;51.600;8.034;2023-02-01T04:24:13;23.45;;;3.97;;
32876;SDS011;19226;51.600;8.034;2023-02-01T04:26:57;14.75;;;4.35;;
32876;SDS011;19226;51.600;8.034;2023-02-01T04:29:42;20.20;;;4.07;;
32876;SDS011;19226;51.600;8.034;2023-02-01T04:32:26;24.00;;;3.83;;
32876;SDS011;19226;51.600;8.034;2023-02-01T04:35:11;18.42;;;3.42;;
32876;SDS011;19226;51.600;8.034;2023-02-01T04:37:55;23.30;;;3.80;;
32876;SDS011;19226;51.600;8.034;2023-02-01T04:40:40;15.48;;;3.97;;
32876;SDS011;19226;51.600;8.034;2023-02-01T04:43:25;19.55;;;3.55;;
32876;SDS011;19226;51.600;8.034;2023-02-01T04:46:09;22.52;;;3.83;;
32876;SDS011;19226;51.600;8.034;2023-02-01T04:48:54;23.17;;;4.45;;
32876;SDS011;19226;51.600;8.034;2023-02-01T04:51:38;26.77;;;4.13;;
32876;SDS011;19226;51.600;8.034;2023-02-01T04:54:24;39.03;;;5.60;;
32876;SDS011;19226;51.600;8.034;2023-02-01T04:57:08;19.13;;;3.90;;
32876;SDS011;19226;51.600;8.034;2023-02-01T04:59:54;18.15;;;3.72;;
32876;SDS011;19226;51.600;8.034;2023-02-01T05:02:38;25.98;;;4.22;;
32876;SDS011;19226;51.600;8.034;2023-02-01T05:05:23;26.65;;;4.57;;
32876;SDS011;19226;51.600;8.034;2023-02-01T05:08:08;21.45;;;4.82;;
32876;SDS011;19226;51.600;8.034;2023-02-01T05:10:53;19.58;;;3.95;;
32876;SDS011;19226;51.600;8.034;2023-02-01T05:13:37;31.40;;;4.05;;
32876;SDS011;19226;51.600;8.034;2023-02-01T05:16:33;30.77;;;4.32;;
32876;SDS011;19226;51.600;8.034;2023-02-01T05:19:18;14.70;;;3.63;;
32876;SDS011;19226;51.600;8.034;2023-02-01T05:22:03;16.92;;;3.60;;
32876;SDS011;19226;51.600;8.034;2023-02-01T05:24:47;22.48;;;3.60;;
32876;SDS011;19226;51.600;8.034;2023-02-01T05:27:31;24.58;;;4.15;;
32876;SDS011;19226;51.600;8.034;2023-02-01T05:30:16;19.17;;;4.07;;
32876;SDS011;19226;51.600;8.034;2023-02-01T05:33:01;23.20;;;3.53;;
32876;SDS011;19226;51.600;8.034;2023-02-01T05:35:46;23.27;;;3.55;;
32876;SDS011;19226;51.600;8.034;2023-02-01T05:38:30;30.08;;;4.05;;
32876;SDS011;19226;51.600;8.034;2023-02-01T05:41:15;27.20;;;4.63;;
32876;SDS011;19226;51.600;8.034;2023-02-01T05:44:00;27.83;;;5.65;;
32876;SDS011;19226;51.600;8.034;2023-02-01T05:46:44;25.33;;;5.50;;
32876;SDS011;19226;51.600;8.034;2023-02-01T05:49:29;20.88;;;5.35;;
32876;SDS011;19226;51.600;8.034;2023-02-01T05:52:14;23.13;;;4.20;;
32876;SDS011;19226;51.600;8.034;2023-02-01T05:55:03;27.02;;;4.32;;
32876;SDS011;19226;51.600;8.034;2023-02-01T05:57:48;24.08;;;4.50;;
32876;SDS011;19226;51.600;8.034;2023-02-01T06:00:32;26.02;;;4.03;;
32876;SDS011;19226;51.600;8.034;2023-02-01T06:03:17;22.65;;;3.90;;
32876;SDS011;19226;51.600;8.034;2023-02-01T06:06:02;26.70;;;4.65;;
32876;SDS011;19226;51.600;8.034;2023-02-01T06:08:47;19.90;;;4.07;;
32876;SDS011;19226;51.600;8.034;2023-02-01T06:11:32;26.55;;;4.10;;
32876;SDS011;19226;51.600;8.034;2023-02-01T06:14:17;15.90;;;3.95;;
32876;SDS011;19226;51.600;8.034;2023-02-01T06:17:01;20.48;;;4.78;;
32876;SDS011;19226;51.600;8.034;2023-02-01T06:19:46;21.63;;;4.07;;
32876;SDS011;19226;51.600;8.034;2023-02-01T06:22:32;19.25;;;4.30;;
32876;SDS011;19226;51.600;8.034;2023-02-01T06:25:17;21.10;;;4.07;;
32876;SDS011;19226;51.600;8.034;2023-02-01T06:28:02;21.42;;;4.13;;
32876;SDS011;19226;51.600;8.034;2023-02-01T06:30:49;18.77;;;4.03;;
32876;SDS011;19226;51.600;8.034;2023-02-01T06:33:34;20.20;;;4.88;;
32876;SDS011;19226;51.600;8.034;2023-02-01T06:36:18;25.83;;;4.53;;
32876;SDS011;19226;51.600;8.034;2023-02-01T06:39:04;25.33;;;4.10;;
32876;SDS011;19226;51.600;8.034;2023-02-01T06:41:49;20.48;;;4.15;;
32876;SDS011;19226;51.600;8.034;2023-02-01T06:44:34;35.17;;;4.65;;
32876;SDS011;19226;51.600;8.034;2023-02-01T06:47:18;22.77;;;4.20;;
32876;SDS011;19226;51.600;8.034;2023-02-01T06:50:03;19.90;;;4.55;;
32876;SDS011;19226;51.600;8.034;2023-02-01T06:52:48;23.50;;;4.90;;
32876;SDS011;19226;51.600;8.034;2023-02-01T06:55:33;21.13;;;4.50;;
32876;SDS011;19226;51.600;8.034;2023-02-01T06:58:17;26.23;;;4.50;;
32876;SDS011;19226;51.600;8.034;2023-02-01T07:01:05;30.63;;;5.45;;
32876;SDS011;19226;51.600;8.034;2023-02-01T07:03:52;25.92;;;4.72;;
32876;SDS011;19226;51.600;8.034;2023-02-01T07:06:36;24.10;;;4.43;;
32876;SDS011;19226;51.600;8.034;2023-02-01T07:09:21;22.52;;;5.15;;
32876;SDS011;19226;51.600;8.034;2023-02-01T07:12:05;30.50;;;5.15;;
32876;SDS011;19226;51.600;8.034;2023-02-01T07:14:50;32.28;;;4.68;;
32876;SDS011;19226;51.600;8.034;2023-02-01T07:17:35;25.13;;;4.90;;
32876;SDS011;19226;51.600;8.034;2023-02-01T07:20:19;24.88;;;4.15;;
32876;SDS011;19226;51.600;8.034;2023-02-01T07:23:04;21.92;;;5.03;;
32876;SDS011;19226;51.600;8.034;2023-02-01T07:25:52;25.85;;;4.35;;
32876;SDS011;19226;51.600;8.034;2023-02-01T07:28:40;25.88;;;5.03;;
32876;SDS011;19226;51.600;8.034;2023-02-01T07:31:25;30.75;;;4.93;;
32876;SDS011;19226;51.600;8.034;2023-02-01T07:34:12;29.33;;;5.43;;
32876;SDS011;19226;51.600;8.034;2023-02-01T07:36:56;20.80;;;4.47;;
32876;SDS011;19226;51.600;8.034;2023-02-01T07:39:41;39.72;;;5.40;;
32876;SDS011;19226;51.600;8.034;2023-02-01T07:42:25;27.65;;;5.40;;
32876;SDS011;19226;51.600;8.034;2023-02-01T07:45:10;33.40;;;5.15;;
32876;SDS011;19226;51.600;8.034;2023-02-01T07:47:57;20.83;;;4.03;;
32876;SDS011;19226;51.600;8.034;2023-02-01T07:50:41;18.67;;;3.83;;
32876;SDS011;19226;51.600;8.034;2023-02-01T07:53:26;27.00;;;4.60;;
32876;SDS011;19226;51.600;8.034;2023-02-01T07:56:16;27.42;;;4.90;;
32876;SDS011;19226;51.600;8.034;2023-02-01T07:59:02;26.98;;;5.32;;
32876;SDS011;19226;51.600;8.034;2023-02-01T08:01:47;26.17;;;4.10;;
32876;SDS011;19226;51.600;8.034;2023-02-01T08:04:32;18.83;;;4.30;;
32876;SDS011;19226;51.600;8.034;2023-02-01T08:07:16;17.63;;;4.30;;
32876;SDS011;19226;51.600;8.034;2023-02-01T08:10:01;18.67;;;4.93;;
32876;SDS011;19226;51.600;8.034;2023-02-01T08:12:45;20.98;;;4.45;;
32876;SDS011;19226;51.600;8.034;2023-02-01T08:15:35;22.73;;;5.40;;
32876;SDS011;19226;51.600;8.034;2023-02-01T08:18:20;18.52;;;4.60;;
32876;SDS011;19226;51.600;8.034;2023-02-01T08:21:05;21.65;;;4.93;;
32876;SDS011;19226;51.600;8.034;2023-02-01T08:23:51;22.67;;;4.68;;
32876;SDS011;19226;51.600;8.034;2023-02-01T08:26:36;20.00;;;4.65;;
32876;SDS011;19226;51.600;8.034;2023-02-01T08:29:20;21.00;;;3.97;;
32876;SDS011;19226;51.600;8.034;2023-02-01T08:32:05;19.48;;;4.50;;
32876;SDS011;19226;51.600;8.034;2023-02-01T08:34:49;30.90;;;4.38;;
32876;SDS011;19226;51.600;8.034;2023-02-01T08:37:34;29.52;;;4.50;;
32876;SDS011;19226;51.600;8.034;2023-02-01T08:40:19;28.63;;;5.05;;
32876;SDS011;19226;51.600;8.034;2023-02-01T08:43:05;25.70;;;5.00;;
32876;SDS011;19226;51.600;8.034;2023-02-01T08:45:50;25.40;;;4.95;;
32876;SDS011;19226;51.600;8.034;2023-02-01T08:48:37;25.45;;;6.35;;
32876;SDS011;19226;51.600;8.034;2023-02-01T08:51:23;23.67;;;5.47;;
32876;SDS011;19226;51.600;8.034;2023-02-01T08:54:07;34.72;;;7.80;;
32876;SDS011;19226;51.600;8.034;2023-02-01T08:56:52;28.02;;;6.00;;
32876;SDS011;19226;51.600;8.034;2023-02-01T08:59:38;22.25;;;7.07;;
32876;SDS011;19226;51.600;8.034;2023-02-01T09:02:23;21.40;;;6.18;;
32876;SDS011;19226;51.600;8.034;2023-02-01T09:05:07;29.35;;;5.72;;
32876;SDS011;19226;51.600;8.034;2023-02-01T09:07:52;22.15;;;5.30;;
32876;SDS011;19226;51.600;8.034;2023-02-01T09:10:37;36.10;;;6.80;;
32876;SDS011;19226;51.600;8.034;2023-02-01T09:13:21;23.08;;;5.90;;
32876;SDS011;19226;51.600;8.034;2023-02-01T09:16:06;29.65;;;5.95;;
32876;SDS011;19226;51.600;8.034;2023-02-01T09:18:51;24.27;;;6.30;;
32876;SDS011;19226;51.600;8.034;2023-02-01T09:21:36;25.23;;;6.38;;
32876;SDS011;19226;51.600;8.034;2023-02-01T09:24:20;28.33;;;5.70;;
32876;SDS011;19226;51.600;8.034;2023-02-01T09:27:04;36.78;;;7.15;;
32876;SDS011;19226;51.600;8.034;2023-02-01T09:29:50;36.58;;;6.05;;
32876;SDS011;19226;51.600;8.034;2023-02-01T09:32:36;28.10;;;4.90;;
32876;SDS011;19226;51.600;8.034;2023-02-01T09:35:21;21.52;;;5.05;;
32876;SDS011;19226;51.600;8.034;2023-02-01T09:38:06;23.63;;;5.38;;
32876;SDS011;19226;51.600;8.034;2023-02-01T09:40:50;30.25;;;8.07;;
32876;SDS011;19226;51.600;8.034;2023-02-01T09:46:29;20.27;;;4.28;;
32876;SDS011;19226;51.600;8.034;2023-02-01T09:49:18;30.33;;;5.13;;
32876;SDS011;19226;51.600;8.034;2023-02-01T09:52:10;27.00;;;6.05;;
32876;SDS011;19226;51.600;8.034;2023-02-01T09:55:01;30.30;;;6.07;;
32876;SDS011;19226;51.600;8.034;2023-02-01T09:57:58;25.13;;;6.15;;
32876;SDS011;19226;51.600;8.034;2023-02-01T10:03:45;20.38;;;5.78;;
32876;SDS011;19226;51.600;8.034;2023-02-01T10:09:36;21.25;;;5.55;;
32876;SDS011;19226;51.600;8.034;2023-02-01T10:18:27;31.10;;;6.90;;
32876;SDS011;19226;51.600;8.034;2023-02-01T10:24:47;23.92;;;5.45;;
32876;SDS011;19226;51.600;8.034;2023-02-01T10:27:45;28.45;;;6.30;;
32876;SDS011;19226;51.600;8.034;2023-02-01T10:30:48;25.13;;;6.07;;
32876;SDS011;19226;51.600;8.034;2023-02-01T10:33:43;24.05;;;5.65;;
32876;SDS011;19226;51.600;8.034;2023-02-01T10:36:40;25.13;;;6.20;;
32876;SDS011;19226;51.600;8.034;2023-02-01T10:39:30;38.85;;;8.57;;
32876;SDS011;19226;51.600;8.034;2023-02-01T10:42:15;19.60;;;5.60;;
32876;SDS011;19226;51.600;8.034;2023-02-01T10:45:02;19.27;;;5.78;;
32876;SDS011;19226;51.600;8.034;2023-02-01T10:47:49;20.95;;;5.80;;
32876;SDS011;19226;51.600;8.034;2023-02-01T10:50:38;25.60;;;7.22;;
32876;SDS011;19226;51.600;8.034;2023-02-01T10:56:32;29.33;;;5.88;;
32876;SDS011;19226;51.600;8.034;2023-02-01T10:59:23;17.58;;;6.40;;
32876;SDS011;19226;51.600;8.034;2023-02-01T11:02:52;17.45;;;5.32;;
32876;SDS011;19226;51.600;8.034;2023-02-01T11:05:18;22.17;;;6.40;;
32876;SDS011;19226;51.600;8.034;2023-02-01T11:08:12;26.45;;;5.53;;
32876;SDS011;19226;51.600;8.034;2023-02-01T11:11:01;27.73;;;5.60;;
32876;SDS011;19226;51.600;8.034;2023-02-01T11:13:53;25.77;;;5.45;;
32876;SDS011;19226;51.600;8.034;2023-02-01T11:16:47;18.65;;;5.55;;
32876;SDS011;19226;51.600;8.034;2023-02-01T11:19:33;26.45;;;5.88;;
32876;SDS011;19226;51.600;8.034;2023-02-01T11:22:18;22.63;;;5.85;;
32876;SDS011;19226;51.600;8.034;2023-02-01T11:25:07;19.17;;;5.53;;
32876;SDS011;19226;51.600;8.034;2023-02-01T11:27:54;23.77;;;6.30;;
32876;SDS011;19226;51.600;8.034;2023-02-01T11:30:40;23.88;;;6.25;;
32876;SDS011;19226;51.600;8.034;2023-02-01T11:33:29;22.15;;;7.57;;
32876;SDS011;19226;51.600;8.034;2023-02-01T11:36:20;20.05;;;6.03;;
32876;SDS011;19226;51.600;8.034;2023-02-01T11:42:13;24.52;;;5.57;;
32876;SDS011;19226;51.600;8.034;2023-02-01T11:45:24;32.47;;;6.03;;
32876;SDS011;19226;51.600;8.034;2023-02-01T11:51:20;21.75;;;5.30;;
32876;SDS011;19226;51.600;8.034;2023-02-01T11:54:14;16.88;;;4.57;;
32876;SDS011;19226;51.600;8.034;2023-02-01T12:12:25;23.50;;;5.63;;
32876;SDS011;19226;51.600;8.034;2023-02-01T12:21:54;24.00;;;4.63;;
32876;SDS011;19226;51.600;8.034;2023-02-01T12:31:13;28.98;;;5.55;;
32876;SDS011;19226;51.600;8.034;2023-02-01T12:37:03;23.70;;;5.60;;
32876;SDS011;19226;51.600;8.034;2023-02-01T12:42:56;30.70;;;5.80;;
32876;SDS011;19226;51.600;8.034;2023-02-01T12:45:45;19.92;;;5.07;;
32876;SDS011;19226;51.600;8.034;2023-02-01T12:48:40;24.45;;;5.70;;
32876;SDS011;19226;51.600;8.034;2023-02-01T12:51:34;18.13;;;5.82;;
32876;SDS011;19226;51.600;8.034;2023-02-01T12:54:23;28.77;;;5.93;;
32876;SDS011;19226;51.600;8.034;2023-02-01T12:57:33;18.15;;;6.03;;
32876;SDS011;19226;51.600;8.034;2023-02-01T13:03:35;29.35;;;5.75;;
32876;SDS011;19226;51.600;8.034;2023-02-01T13:06:46;28.25;;;5.65;;
32876;SDS011;19226;51.600;8.034;2023-02-01T13:12:57;27.48;;;9.32;;
32876;SDS011;19226;51.600;8.034;2023-02-01T13:22:21;28.70;;;8.18;;
32876;SDS011;19226;51.600;8.034;2023-02-01T13:25:12;27.38;;;6.45;;
32876;SDS011;19226;51.600;8.034;2023-02-01T13:28:00;25.02;;;6.30;;
32876;SDS011;19226;51.600;8.034;2023-02-01T13:37:18;24.35;;;6.25;;
32876;SDS011;19226;51.600;8.034;2023-02-01T13:40:39;27.73;;;6.30;;
32876;SDS011;19226;51.600;8.034;2023-02-01T13:43:29;22.92;;;5.57;;
32876;SDS011;19226;51.600;8.034;2023-02-01T13:46:15;24.50;;;6.88;;
32876;SDS011;19226;51.600;8.034;2023-02-01T13:49:01;34.70;;;6.57;;
32876;SDS011;19226;51.600;8.034;2023-02-01T13:51:48;30.13;;;5.85;;
32876;SDS011;19226;51.600;8.034;2023-02-01T13:54:41;27.92;;;5.07;;
32876;SDS011;19226;51.600;8.034;2023-02-01T13:57:38;22.42;;;6.13;;
32876;SDS011;19226;51.600;8.034;2023-02-01T14:00:29;23.17;;;5.80;;
32876;SDS011;19226;51.600;8.034;2023-02-01T14:03:16;24.45;;;7.13;;
32876;SDS011;19226;51.600;8.034;2023-02-01T14:06:14;19.25;;;5.55;;
32876;SDS011;19226;51.600;8.034;2023-02-01T14:09:21;24.17;;;7.45;;
32876;SDS011;19226;51.600;8.034;2023-02-01T14:15:32;34.85;;;5.85;;
32876;SDS011;19226;51.600;8.034;2023-02-01T14:24:23;28.02;;;5.82;;
32876;SDS011;19226;51.600;8.034;2023-02-01T14:29:57;23.80;;;5.03;;
32876;SDS011;19226;51.600;8.034;2023-02-01T14:32:50;27.45;;;6.80;;
32876;SDS011;19226;51.600;8.034;2023-02-01T14:35:35;23.50;;;3.92;;
32876;SDS011;19226;51.600;8.034;2023-02-01T14:38:20;16.83;;;3.25;;
32876;SDS011;19226;51.600;8.034;2023-02-01T14:56:04;25.55;;;4.53;;
32876;SDS011;19226;51.600;8.034;2023-02-01T14:59:00;24.30;;;5.07;;
32876;SDS011;19226;51.600;8.034;2023-02-01T15:01:54;18.77;;;4.57;;
32876;SDS011;19226;51.600;8.034;2023-02-01T15:04:42;22.70;;;4.38;;
32876;SDS011;19226;51.600;8.034;2023-02-01T15:07:29;27.65;;;4.72;;
32876;SDS011;19226;51.600;8.034;2023-02-01T15:10:14;24.85;;;3.97;;
32876;SDS011;19226;51.600;8.034;2023-02-01T15:12:59;27.88;;;5.03;;
32876;SDS011;19226;51.600;8.034;2023-02-01T15:15:44;26.42;;;3.92;;
32876;SDS011;19226;51.600;8.034;2023-02-01T15:18:29;17.30;;;3.55;;
32876;SDS011;19226;51.600;8.034;2023-02-01T15:21:15;19.85;;;3.92;;
32876;SDS011;19226;51.600;8.034;2023-02-01T15:27:09;23.52;;;4.22;;
32876;SDS011;19226;51.600;8.034;2023-02-01T15:29:54;28.33;;;4.30;;
32876;SDS011;19226;51.600;8.034;2023-02-01T15:32:49;26.13;;;5.75;;
32876;SDS011;19226;51.600;8.034;2023-02-01T15:38:31;19.05;;;3.20;;
32876;SDS011;19226;51.600;8.034;2023-02-01T15:41:19;25.83;;;4.05;;
32876;SDS011;19226;51.600;8.034;2023-02-01T15:44:11;18.58;;;3.00;;
32876;SDS011;19226;51.600;8.034;2023-02-01T15:47:46;21.63;;;3.75;;
32876;SDS011;19226;51.600;8.034;2023-02-01T15:50:15;17.92;;;3.47;;
32876;SDS011;19226;51.600;8.034;2023-02-01T15:53:03;24.35;;;4.25;;
32876;SDS011;19226;51.600;8.034;2023-02-01T15:55:51;24.35;;;4.65;;
32876;SDS011;19226;51.600;8.034;2023-02-01T15:58:37;24.13;;;4.13;;
32876;SDS011;19226;51.600;8.034;2023-02-01T16:01:26;21.95;;;4.05;;
32876;SDS011;19226;51.600;8.034;2023-02-01T16:06:56;23.48;;;3.65;;
32876;SDS011;19226;51.600;8.034;2023-02-01T16:09:53;20.98;;;4.45;;
32876;SDS011;19226;51.600;8.034;2023-02-01T16:15:27;15.82;;;3.08;;
32876;SDS011;19226;51.600;8.034;2023-02-01T16:18:13;14.40;;;3.17;;
32876;SDS011;19226;51.600;8.034;2023-02-01T16:20:58;18.23;;;3.63;;
32876;SDS011;19226;51.600;8.034;2023-02-01T16:23:43;14.90;;;3.53;;
32876;SDS011;19226;51.600;8.034;2023-02-01T16:26:27;25.30;;;3.75;;
32876;SDS011;19226;51.600;8.034;2023-02-01T16:29:12;18.20;;;3.63;;
32876;SDS011;19226;51.600;8.034;2023-02-01T16:31:59;24.00;;;3.80;;
32876;SDS011;19226;51.600;8.034;2023-02-01T16:34:44;21.05;;;4.13;;
32876;SDS011;19226;51.600;8.034;2023-02-01T16:37:29;20.52;;;3.75;;
32876;SDS011;19226;51.600;8.034;2023-02-01T16:40:16;13.95;;;4.05;;
32876;SDS011;19226;51.600;8.034;2023-02-01T16:43:01;22.08;;;4.25;;
32876;SDS011;19226;51.600;8.034;2023-02-01T16:45:52;26.90;;;4.40;;
32876;SDS011;19226;51.600;8.034;2023-02-01T16:48:38;30.38;;;4.43;;
32876;SDS011;19226;51.600;8.034;2023-02-01T16:51:26;29.88;;;4.95;;
32876;SDS011;19226;51.600;8.034;2023-02-01T16:54:16;28.25;;;4.47;;
32876;SDS011;19226;51.600;8.034;2023-02-01T16:57:00;35.13;;;4.80;;
32876;SDS011;19226;51.600;8.034;2023-02-01T16:59:45;20.38;;;4.20;;
32876;SDS011;19226;51.600;8.034;2023-02-01T17:02:30;21.08;;;4.10;;
32876;SDS011;19226;51.600;8.034;2023-02-01T17:05:14;27.10;;;4.22;;
32876;SDS011;19226;51.600;8.034;2023-02-01T17:08:00;31.45;;;5.22;;
32876;SDS011;19226;51.600;8.034;2023-02-01T17:10:48;16.00;;;3.45;;
32876;SDS011;19226;51.600;8.034;2023-02-01T17:13:33;15.15;;;3.60;;
32876;SDS011;19226;51.600;8.034;2023-02-01T17:19:04;19.90;;;3.88;;
32876;SDS011;19226;51.600;8.034;2023-02-01T17:21:51;15.23;;;3.90;;
32876;SDS011;19226;51.600;8.034;2023-02-01T17:24:39;12.05;;;2.97;;
32876;SDS011;19226;51.600;8.034;2023-02-01T17:27:23;11.05;;;2.53;;
32876;SDS011;19226;51.600;8.034;2023-02-01T17:30:08;9.48;;;2.33;;
32876;SDS011;19226;51.600;8.034;2023-02-01T17:32:53;9.05;;;1.60;;
32876;SDS011;19226;51.600;8.034;2023-02-01T17:35:39;9.90;;;1.92;;
32876;SDS011;19226;51.600;8.034;2023-02-01T17:38:24;5.82;;;1.45;;
32876;SDS011;19226;51.600;8.034;2023-02-01T17:41:09;7.35;;;1.70;;
32876;SDS011;19226;51.600;8.034;2023-02-01T17:43:55;10.50;;;1.80;;
32876;SDS011;19226;51.600;8.034;2023-02-01T17:46:40;7.85;;;1.65;;
32876;SDS011;19226;51.600;8.034;2023-02-01T17:49:24;12.18;;;1.55;;
32876;SDS011;19226;51.600;8.034;2023-02-01T17:52:15;6.40;;;1.52;;
32876;SDS011;19226;51.600;8.034;2023-02-01T17:55:01;8.90;;;1.63;;
32876;SDS011;19226;51.600;8.034;2023-02-01T17:57:47;10.70;;;1.83;;
32876;SDS011;19226;51.600;8.034;2023-02-01T18:00:32;6.88;;;1.70;;
32876;SDS011;19226;51.600;8.034;2023-02-01T18:03:19;7.97;;;1.50;;
32876;SDS011;19226;51.600;8.034;2023-02-01T18:06:08;9.97;;;1.80;;
32876;SDS011;19226;51.600;8.034;2023-02-01T18:08:56;7.75;;;1.77;;
32876;SDS011;19226;51.600;8.034;2023-02-01T18:11:40;8.00;;;1.70;;
32876;SDS011;19226;51.600;8.034;2023-02-01T18:14:25;4.93;;;1.63;;
32876;SDS011;19226;51.600;8.034;2023-02-01T18:17:10;8.15;;;2.65;;
32876;SDS011;19226;51.600;8.034;2023-02-01T18:19:58;11.20;;;2.00;;
32876;SDS011;19226;51.600;8.034;2023-02-01T18:22:43;12.88;;;2.08;;
32876;SDS011;19226;51.600;8.034;2023-02-01T18:25:31;9.27;;;2.13;;
32876;SDS011;19226;51.600;8.034;2023-02-01T18:28:21;5.97;;;1.60;;
32876;SDS011;19226;51.600;8.034;2023-02-01T18:31:05;9.48;;;2.25;;
32876;SDS011;19226;51.600;8.034;2023-02-01T18:33:51;14.23;;;2.72;;
32876;SDS011;19226;51.600;8.034;2023-02-01T18:36:39;16.77;;;2.75;;
32876;SDS011;19226;51.600;8.034;2023-02-01T18:39:24;13.20;;;2.38;;
32876;SDS011;19226;51.600;8.034;2023-02-01T18:42:08;5.47;;;2.70;;
32876;SDS011;19226;51.600;8.034;2023-02-01T18:44:54;13.50;;;4.22;;
32876;SDS011;19226;51.600;8.034;2023-02-01T18:47:39;17.08;;;3.97;;
32876;SDS011;19226;51.600;8.034;2023-02-01T18:50:24;15.27;;;6.68;;
32876;SDS011;19226;51.600;8.034;2023-02-01T18:53:12;14.48;;;4.50;;
32876;SDS011;19226;51.600;8.034;2023-02-01T18:56:03;20.73;;;5.85;;
32876;SDS011;19226;51.600;8.034;2023-02-01T18:58:48;10.80;;;5.13;;
32876;SDS011;19226;51.600;8.034;2023-02-01T19:01:32;11.82;;;5.50;;
32876;SDS011;19226;51.600;8.034;2023-02-01T19:04:17;12.15;;;4.80;;
32876;SDS011;19226;51.600;8.034;2023-02-01T19:07:01;17.70;;;4.82;;
32876;SDS011;19226;51.600;8.034;2023-02-01T19:09:46;9.52;;;3.30;;
32876;SDS011;19226;51.600;8.034;2023-02-01T19:12:30;6.25;;;2.47;;
32876;SDS011;19226;51.600;8.034;2023-02-01T19:15:21;12.85;;;2.78;;